createdAt,value
2022-10-22T00:01:39.371Z,10.90
2022-10-22T00:04:05.877Z,8.32
2022-10-22T00:06:32.342Z,9.05
2022-10-22T00:08:58.941Z,8.27
2022-10-22T00:11:25.750Z,8.82
2022-10-22T00:13:52.177Z,9.48
2022-10-22T00:16:18.706Z,8.35
2022-10-22T00:18:46.846Z,9.75
2022-10-22T00:21:13.368Z,8.90
2022-10-22T00:23:40.893Z,7.88
2022-10-22T00:26:07.305Z,11.02
2022-10-22T00:28:33.863Z,9.18
2022-10-22T00:31:01.198Z,8.85
2022-10-22T00:33:28.920Z,7.65
2022-10-22T00:35:56.945Z,8.50
2022-10-22T00:38:23.719Z,7.75
2022-10-22T00:40:50.433Z,7.35
2022-10-22T00:43:18.902Z,9.00
2022-10-22T00:45:45.947Z,9.82
2022-10-22T00:48:15.990Z,9.43
2022-10-22T00:50:47.130Z,8.88
2022-10-22T00:53:17.337Z,8.88
2022-10-22T00:55:47.553Z,8.52
2022-10-22T00:58:14.846Z,9.27
2022-10-22T01:00:41.942Z,8.50
2022-10-22T01:03:08.394Z,8.73
2022-10-22T01:05:41.068Z,9.30
2022-10-22T01:10:54.488Z,8.68
2022-10-22T01:13:32.756Z,7.68
2022-10-22T01:16:08.578Z,8.88
2022-10-22T01:18:42.745Z,8.68
2022-10-22T01:21:18.561Z,8.68
2022-10-22T01:24:21.560Z,8.80
2022-10-22T01:27:02.643Z,8.52
2022-10-22T01:29:37.156Z,8.10
2022-10-22T01:32:09.592Z,10.23
2022-10-22T01:34:40.298Z,10.65
2022-10-22T01:37:08.315Z,7.25
2022-10-22T01:39:36.672Z,7.95
2022-10-22T01:42:03.252Z,8.93
2022-10-22T01:44:33.226Z,9.20
2022-10-22T01:47:13.979Z,9.07
2022-10-22T01:50:00.861Z,7.68
2022-10-22T01:52:36.991Z,8.75
2022-10-22T01:55:14.702Z,7.95
2022-10-22T01:57:47.313Z,8.23
2022-10-22T02:00:18.872Z,9.03
2022-10-22T02:02:54.184Z,8.88
2022-10-22T02:05:24.915Z,7.07
2022-10-22T02:07:55.564Z,8.65
2022-10-22T02:10:23.515Z,8.80
2022-10-22T02:12:53.898Z,7.88
2022-10-22T02:15:25.408Z,7.75
2022-10-22T02:17:53.334Z,7.82
2022-10-22T02:20:25.827Z,9.50
2022-10-22T02:22:52.528Z,10.00
2022-10-22T02:25:21.999Z,9.48
2022-10-22T02:27:54.627Z,9.55
2022-10-22T02:30:23.339Z,10.30
2022-10-22T02:32:55.411Z,8.38
2022-10-22T02:35:24.308Z,10.30
2022-10-22T02:37:52.638Z,8.07
2022-10-22T02:40:20.024Z,9.60
2022-10-22T02:42:48.188Z,8.65
2022-10-22T02:45:15.065Z,8.73
2022-10-22T02:47:42.857Z,8.63
2022-10-22T02:50:10.371Z,9.07
2022-10-22T02:52:37.405Z,8.68
2022-10-22T02:55:05.843Z,8.20
2022-10-22T02:57:32.645Z,9.32
2022-10-22T02:59:59.138Z,9.75
2022-10-22T03:02:25.532Z,7.80
2022-10-22T03:04:53.296Z,7.78
2022-10-22T03:07:19.788Z,7.05
2022-10-22T03:09:46.257Z,8.25
2022-10-22T03:12:12.973Z,7.80
2022-10-22T03:14:39.384Z,7.32
2022-10-22T03:17:05.826Z,7.50
2022-10-22T03:19:32.319Z,8.45
2022-10-22T03:22:02.258Z,8.00
2022-10-22T03:24:33.304Z,8.05
2022-10-22T03:26:59.737Z,7.70
2022-10-22T03:29:27.630Z,7.80
2022-10-22T03:31:54.781Z,8.52
2022-10-22T03:34:21.639Z,7.97
2022-10-22T03:36:48.973Z,8.13
2022-10-22T03:39:18.388Z,7.80
2022-10-22T03:41:46.041Z,8.95
2022-10-22T03:44:12.800Z,7.18
2022-10-22T03:46:39.235Z,9.25
2022-10-22T03:49:05.638Z,8.93
2022-10-22T03:51:32.556Z,7.53
2022-10-22T03:53:59.097Z,6.97
2022-10-22T03:56:26.936Z,7.25
2022-10-22T03:58:56.144Z,7.45
2022-10-22T04:01:22.989Z,7.30
2022-10-22T04:03:49.484Z,7.03
2022-10-22T04:06:16.283Z,7.13
2022-10-22T04:08:45.047Z,7.78
2022-10-22T04:11:12.960Z,6.90
2022-10-22T04:13:41.154Z,8.52
2022-10-22T04:16:09.781Z,8.27
2022-10-22T04:18:36.276Z,7.95
2022-10-22T04:21:02.940Z,6.63
2022-10-22T04:23:29.434Z,7.50
2022-10-22T04:25:57.955Z,6.90
2022-10-22T04:28:24.457Z,7.90
2022-10-22T04:30:52.290Z,7.00
2022-10-22T04:33:19.157Z,7.18
2022-10-22T04:35:45.573Z,7.03
2022-10-22T04:38:13.620Z,7.13
2022-10-22T04:40:40.050Z,8.23
2022-10-22T04:43:06.478Z,7.25
2022-10-22T04:45:33.447Z,7.82
2022-10-22T04:48:01.292Z,7.65
2022-10-22T04:50:27.991Z,8.25
2022-10-22T04:52:54.421Z,8.27
2022-10-22T04:55:21.112Z,7.25
2022-10-22T04:57:47.676Z,7.55
2022-10-22T05:00:14.477Z,7.18
2022-10-22T05:02:40.895Z,7.43
2022-10-22T05:05:09.052Z,9.95
2022-10-22T05:07:35.493Z,9.00
2022-10-22T05:10:01.916Z,8.15
2022-10-22T05:12:28.339Z,8.77
2022-10-22T05:14:54.833Z,8.70
2022-10-22T05:17:21.285Z,8.32
2022-10-22T05:19:47.684Z,8.02
2022-10-22T05:22:15.487Z,6.32
2022-10-22T05:24:41.871Z,8.85
2022-10-22T05:27:08.358Z,7.78
2022-10-22T05:29:35.447Z,7.93
2022-10-22T05:32:01.916Z,7.15
2022-10-22T05:34:28.320Z,8.68
2022-10-22T05:36:54.802Z,7.70
2022-10-22T05:39:22.539Z,8.45
2022-10-22T05:41:48.950Z,8.10
2022-10-22T05:44:15.705Z,8.93
2022-10-22T05:46:42.119Z,7.50
2022-10-22T05:49:12.691Z,8.98
2022-10-22T05:51:39.189Z,8.85
2022-10-22T05:54:07.442Z,9.00
2022-10-22T05:56:35.628Z,8.82
2022-10-22T06:01:31.194Z,7.85
2022-10-22T06:03:59.401Z,8.82
2022-10-22T06:06:30.408Z,8.27
2022-10-22T06:09:00.938Z,8.05
2022-10-22T06:11:29.913Z,7.93
2022-10-22T06:14:00.439Z,8.70
2022-10-22T06:16:28.930Z,9.38
2022-10-22T06:18:55.340Z,9.80
2022-10-22T06:21:21.792Z,8.35
2022-10-22T06:23:48.256Z,9.50
2022-10-22T06:26:14.656Z,9.50
2022-10-22T06:28:41.232Z,9.25
2022-10-22T06:31:09.667Z,8.00
2022-10-22T06:33:36.174Z,8.20
2022-10-22T06:36:07.732Z,9.73
2022-10-22T06:38:34.494Z,9.00
2022-10-22T06:41:02.975Z,8.98
2022-10-22T06:43:29.402Z,8.98
2022-10-22T06:45:59.027Z,8.35
2022-10-22T06:48:26.820Z,8.30
2022-10-22T06:50:53.280Z,8.30
2022-10-22T06:55:47.336Z,9.55
2022-10-22T06:58:13.920Z,9.88
2022-10-22T07:00:40.508Z,9.13
2022-10-22T07:03:06.946Z,8.70
2022-10-22T07:05:34.964Z,9.45
2022-10-22T07:08:01.358Z,9.15
2022-10-22T07:10:30.011Z,9.05
2022-10-22T07:12:57.847Z,9.63
2022-10-22T07:15:24.333Z,9.77
2022-10-22T07:17:50.840Z,8.65
2022-10-22T07:20:17.396Z,6.65
2022-10-22T07:22:45.188Z,5.55
2022-10-22T07:25:11.595Z,5.82
2022-10-22T07:27:38.256Z,9.77
2022-10-22T07:30:06.051Z,9.32
2022-10-22T07:32:32.468Z,7.63
2022-10-22T07:34:59.113Z,9.35
2022-10-22T07:37:25.511Z,9.20
2022-10-22T07:39:53.282Z,9.40
2022-10-22T07:42:19.741Z,9.48
2022-10-22T07:44:46.198Z,9.50
2022-10-22T07:47:12.607Z,8.85
2022-10-22T07:49:39.099Z,8.90
2022-10-22T07:52:06.773Z,9.75
2022-10-22T07:54:33.237Z,9.63
2022-10-22T07:57:01.286Z,9.48
2022-10-22T07:59:27.751Z,9.88
2022-10-22T08:01:54.167Z,8.40
2022-10-22T08:04:20.645Z,8.55
2022-10-22T08:06:47.370Z,9.40
2022-10-22T08:09:14.612Z,9.13
2022-10-22T08:11:41.081Z,9.23
2022-10-22T08:14:08.875Z,8.85
2022-10-22T08:16:35.404Z,8.35
2022-10-22T08:19:01.884Z,7.65
2022-10-22T08:21:28.319Z,8.70
2022-10-22T08:23:54.836Z,7.50
2022-10-22T08:26:21.292Z,7.88
2022-10-22T08:28:47.737Z,7.57
2022-10-22T08:31:15.806Z,8.07
2022-10-22T08:33:42.267Z,8.55
2022-10-22T08:36:09.475Z,7.03
2022-10-22T08:38:36.017Z,5.75
2022-10-22T08:41:10.110Z,7.40
2022-10-22T08:44:11.776Z,6.07
2022-10-22T08:46:55.915Z,6.43
2022-10-22T08:49:26.094Z,6.60
2022-10-22T08:51:53.209Z,6.93
2022-10-22T08:54:27.438Z,5.85
2022-10-22T08:57:06.346Z,6.45
2022-10-22T08:59:41.276Z,6.78
2022-10-22T09:02:30.147Z,6.18
2022-10-22T09:05:10.043Z,6.88
2022-10-22T09:07:41.777Z,6.63
2022-10-22T09:10:11.280Z,5.65
2022-10-22T09:12:37.829Z,5.90
2022-10-22T09:15:04.698Z,6.45
2022-10-22T09:17:38.587Z,5.85
2022-10-22T09:20:14.468Z,5.78
2022-10-22T09:22:48.703Z,5.40
2022-10-22T09:25:20.139Z,6.03
2022-10-22T09:27:47.049Z,4.90
2022-10-22T09:30:17.501Z,4.63
2022-10-22T09:32:45.615Z,4.68
2022-10-22T09:35:14.420Z,3.70
2022-10-22T09:37:49.488Z,3.75
2022-10-22T09:40:16.907Z,4.00
2022-10-22T09:42:45.076Z,3.63
2022-10-22T09:45:21.539Z,3.55
2022-10-22T09:48:01.541Z,3.88
2022-10-22T09:50:38.330Z,3.90
2022-10-22T09:53:11.566Z,3.28
2022-10-22T09:55:38.407Z,3.70
2022-10-22T09:58:04.838Z,4.10
2022-10-22T10:00:31.512Z,3.92
2022-10-22T10:03:00.352Z,3.20
2022-10-22T10:05:30.323Z,3.28
2022-10-22T10:07:57.071Z,3.72
2022-10-22T10:10:34.920Z,3.78
2022-10-22T10:13:17.697Z,3.50
2022-10-22T10:15:54.300Z,3.60
2022-10-22T10:18:39.380Z,3.97
2022-10-22T10:23:51.664Z,3.67
2022-10-22T10:26:24.115Z,3.20
2022-10-22T10:29:00.318Z,3.75
2022-10-22T10:31:38.971Z,4.00
2022-10-22T10:34:17.679Z,4.13
2022-10-22T10:36:51.941Z,3.15
2022-10-22T10:39:27.954Z,3.85
2022-10-22T10:42:01.490Z,3.40
2022-10-22T10:47:30.911Z,3.58
2022-10-22T10:50:12.704Z,3.95
2022-10-22T10:52:45.004Z,3.40
2022-10-22T10:55:18.936Z,4.07
2022-10-22T10:57:56.526Z,3.45
2022-10-22T11:00:23.799Z,3.92
2022-10-22T11:03:32.125Z,4.60
2022-10-22T11:06:02.780Z,4.25
2022-10-22T11:08:32.707Z,3.53
2022-10-22T11:11:03.089Z,4.47
2022-10-22T11:13:34.474Z,3.90
2022-10-22T11:16:05.331Z,4.00
2022-10-22T11:18:37.238Z,5.10
2022-10-22T11:21:13.660Z,4.43
2022-10-22T11:23:45.284Z,3.80
2022-10-22T11:26:17.455Z,4.22
2022-10-22T11:28:48.753Z,3.65
2022-10-22T11:31:17.740Z,3.63
2022-10-22T11:33:57.168Z,3.55
2022-10-22T11:36:33.297Z,4.03
2022-10-22T11:39:03.005Z,3.45
2022-10-22T11:41:32.090Z,3.50
2022-10-22T11:44:08.416Z,4.63
2022-10-22T11:46:43.133Z,3.80
2022-10-22T11:49:19.443Z,3.65
2022-10-22T11:51:47.717Z,3.70
2022-10-22T11:54:37.973Z,3.28
2022-10-22T11:57:19.114Z,3.30
2022-10-22T11:59:50.235Z,3.03
2022-10-22T12:02:38.757Z,2.97
2022-10-22T12:05:36.024Z,3.17
2022-10-22T12:08:23.934Z,2.85
2022-10-22T12:11:02.747Z,2.88
2022-10-22T12:13:32.061Z,2.90
2022-10-22T12:16:02.297Z,2.58
2022-10-22T12:18:35.224Z,3.00
2022-10-22T12:21:01.673Z,2.92
2022-10-22T12:23:33.988Z,3.00
2022-10-22T12:26:00.432Z,3.22
2022-10-22T12:28:26.901Z,2.78
2022-10-22T12:30:53.307Z,3.13
2022-10-22T12:33:21.636Z,3.00
2022-10-22T12:35:50.292Z,2.58
2022-10-22T12:38:18.904Z,2.97
2022-10-22T12:40:48.675Z,2.70
2022-10-22T12:43:18.323Z,2.88
2022-10-22T12:45:46.751Z,3.38
2022-10-22T12:48:18.172Z,2.60
2022-10-22T12:50:47.188Z,3.28
2022-10-22T12:53:15.545Z,2.83
2022-10-22T12:55:42.081Z,3.08
2022-10-22T12:58:17.065Z,3.80
2022-10-22T13:00:46.032Z,2.95
2022-10-22T13:03:25.687Z,3.28
2022-10-22T13:05:52.350Z,3.30
2022-10-22T13:08:22.408Z,3.42
2022-10-22T13:10:50.776Z,3.65
2022-10-22T13:13:32.807Z,3.22
2022-10-22T13:16:13.553Z,3.13
2022-10-22T13:18:40.468Z,4.05
2022-10-22T13:21:22.807Z,2.50
2022-10-22T13:23:52.847Z,3.45
2022-10-22T13:26:19.638Z,3.10
2022-10-22T13:28:53.412Z,3.53
2022-10-22T13:31:23.311Z,2.80
2022-10-22T13:33:53.606Z,3.55
2022-10-22T13:36:20.130Z,3.42
2022-10-22T13:38:46.554Z,3.60
2022-10-22T13:41:23.637Z,3.53
2022-10-22T13:43:52.399Z,3.10
2022-10-22T13:46:19.979Z,3.70
2022-10-22T13:48:47.708Z,3.45
2022-10-22T13:51:16.291Z,4.28
2022-10-22T13:53:44.604Z,3.67
2022-10-22T13:56:14.183Z,3.63
2022-10-22T13:58:40.658Z,3.17
2022-10-22T14:01:19.825Z,3.13
2022-10-22T14:03:47.920Z,3.40
2022-10-22T14:06:16.134Z,3.13
2022-10-22T14:08:44.838Z,3.33
2022-10-22T14:11:12.386Z,3.42
2022-10-22T14:13:39.202Z,3.97
2022-10-22T14:16:07.028Z,4.00
2022-10-22T14:18:35.743Z,4.32
2022-10-22T14:21:05.463Z,4.05
2022-10-22T14:23:32.257Z,3.95
2022-10-22T14:25:59.500Z,3.67
2022-10-22T14:28:25.972Z,3.70
2022-10-22T14:30:52.779Z,2.97
2022-10-22T14:33:24.734Z,3.00
2022-10-22T14:35:55.156Z,2.90
2022-10-22T14:38:22.481Z,3.63
2022-10-22T14:40:49.711Z,3.00
2022-10-22T14:43:20.520Z,2.67
2022-10-22T14:45:46.916Z,3.30
2022-10-22T14:48:13.404Z,2.97
2022-10-22T14:50:39.836Z,3.20
2022-10-22T14:53:07.668Z,3.80
2022-10-22T14:55:34.178Z,3.45
2022-10-22T14:58:00.602Z,3.05
2022-10-22T15:00:27.153Z,3.15
2022-10-22T15:02:53.596Z,3.47
2022-10-22T15:05:20.054Z,3.53
2022-10-22T15:07:46.490Z,4.05
2022-10-22T15:10:14.461Z,2.70
2022-10-22T15:12:41.031Z,3.25
2022-10-22T15:15:08.172Z,2.78
2022-10-22T15:17:34.763Z,3.47
2022-10-22T15:20:01.223Z,2.72
2022-10-22T15:22:27.612Z,2.90
2022-10-22T15:24:54.240Z,3.20
2022-10-22T15:27:21.982Z,2.20
2022-10-22T15:29:48.447Z,2.72
2022-10-22T15:32:15.043Z,2.70
2022-10-22T15:34:41.440Z,3.00
2022-10-22T15:37:10.270Z,2.63
2022-10-22T15:39:39.436Z,2.70
2022-10-22T15:42:05.997Z,2.35
2022-10-22T15:44:33.886Z,2.45
2022-10-22T15:47:03.188Z,3.63
2022-10-22T15:49:29.970Z,3.47
2022-10-22T15:51:56.375Z,2.75
2022-10-22T15:54:25.247Z,2.83
2022-10-22T15:56:52.087Z,2.67
2022-10-22T15:59:18.640Z,2.50
2022-10-22T16:01:47.092Z,2.95
2022-10-22T16:04:13.902Z,2.28
2022-10-22T16:06:42.878Z,2.63
2022-10-22T16:09:11.178Z,2.60
2022-10-22T16:11:39.139Z,2.95
2022-10-22T16:14:06.117Z,2.67
2022-10-22T16:16:35.051Z,2.85
2022-10-22T16:19:03.502Z,2.63
2022-10-22T16:21:29.892Z,2.47
2022-10-22T16:23:56.286Z,2.83
2022-10-22T16:26:22.761Z,2.85
2022-10-22T16:28:49.262Z,3.33
2022-10-22T16:31:17.836Z,2.35
2022-10-22T16:33:47.810Z,3.33
2022-10-22T16:36:20.213Z,3.00
2022-10-22T16:38:47.988Z,3.70
2022-10-22T16:41:16.183Z,3.17
2022-10-22T16:43:43.745Z,3.70
2022-10-22T16:46:10.202Z,3.70
2022-10-22T16:48:37.543Z,3.22
2022-10-22T16:51:06.572Z,3.30
2022-10-22T16:56:08.653Z,3.50
2022-10-22T16:58:35.063Z,3.85
2022-10-22T17:01:06.065Z,3.45
2022-10-22T17:03:32.520Z,3.80
2022-10-22T17:05:59.296Z,4.00
2022-10-22T17:08:25.712Z,4.20
2022-10-22T17:10:53.457Z,4.10
2022-10-22T17:13:19.934Z,3.65
2022-10-22T17:15:46.412Z,3.85
2022-10-22T17:18:12.858Z,4.45
2022-10-22T17:20:40.989Z,3.88
2022-10-22T17:23:07.491Z,4.25
2022-10-22T17:25:40.868Z,4.47
2022-10-22T17:28:09.020Z,4.57
2022-10-22T17:30:35.449Z,5.03
2022-10-22T17:33:01.892Z,7.18
2022-10-22T17:35:28.416Z,7.85
2022-10-22T17:37:54.834Z,7.57
2022-10-22T17:40:21.752Z,7.63
2022-10-22T17:42:48.649Z,7.55
2022-10-22T17:45:16.443Z,6.15
2022-10-22T17:47:43.126Z,5.90
2022-10-22T17:50:10.036Z,4.75
2022-10-22T17:52:36.471Z,5.70
2022-10-22T17:55:03.105Z,4.28
2022-10-22T17:57:29.536Z,4.80
2022-10-22T17:59:55.963Z,4.60
2022-10-22T18:02:23.794Z,4.10
2022-10-22T18:04:51.190Z,4.30
2022-10-22T18:07:17.795Z,4.35
2022-10-22T18:09:45.195Z,4.10
2022-10-22T18:12:12.567Z,4.32
2022-10-22T18:14:39.862Z,4.57
2022-10-22T18:17:06.498Z,4.50
2022-10-22T18:19:34.302Z,5.22
2022-10-22T18:22:00.743Z,4.10
2022-10-22T18:24:27.410Z,4.63
2022-10-22T18:26:54.017Z,4.97
2022-10-22T18:29:20.560Z,5.53
2022-10-22T18:31:47.882Z,5.03
2022-10-22T18:34:15.129Z,4.95
2022-10-22T18:36:43.456Z,4.05
2022-10-22T18:39:13.486Z,4.45
2022-10-22T18:41:39.925Z,4.53
2022-10-22T18:44:07.182Z,4.90
2022-10-22T18:46:34.937Z,4.20
2022-10-22T18:49:01.652Z,3.97
2022-10-22T18:51:29.562Z,3.60
2022-10-22T18:54:05.338Z,3.78
2022-10-22T18:56:38.812Z,5.30
2022-10-22T18:59:05.327Z,4.20
2022-10-22T19:01:31.740Z,3.50
2022-10-22T19:03:58.165Z,4.13
2022-10-22T19:06:26.738Z,3.83
2022-10-22T19:08:53.190Z,4.28
2022-10-22T19:11:21.241Z,4.43
2022-10-22T19:13:47.696Z,3.90
2022-10-22T19:16:18.221Z,3.92
2022-10-22T19:18:44.617Z,3.90
2022-10-22T19:21:11.444Z,3.35
2022-10-22T19:23:37.903Z,3.58
2022-10-22T19:26:07.182Z,3.88
2022-10-22T19:28:35.921Z,3.70
2022-10-22T19:31:04.844Z,4.05
2022-10-22T19:33:31.251Z,3.60
2022-10-22T19:35:57.663Z,3.92
2022-10-22T19:38:24.097Z,3.95
2022-10-22T19:40:50.505Z,4.22
2022-10-22T19:43:19.010Z,3.90
2022-10-22T19:45:46.935Z,3.90
2022-10-22T19:48:13.342Z,3.63
2022-10-22T19:50:39.758Z,3.22
2022-10-22T19:53:06.160Z,3.95
2022-10-22T19:55:32.752Z,3.55
2022-10-22T19:57:59.212Z,3.85
2022-10-22T20:00:25.649Z,3.85
2022-10-22T20:02:53.387Z,4.15
2022-10-22T20:05:19.868Z,3.75
2022-10-22T20:07:46.343Z,3.72
2022-10-22T20:10:12.760Z,5.40
2022-10-22T20:12:39.203Z,4.60
2022-10-22T20:15:06.828Z,4.72
2022-10-22T20:17:33.249Z,4.20
2022-10-22T20:20:01.231Z,4.65
2022-10-22T20:22:27.767Z,4.70
2022-10-22T20:24:54.278Z,4.95
2022-10-22T20:27:21.066Z,4.22
2022-10-22T20:29:47.547Z,5.30
2022-10-22T20:32:14.088Z,5.03
2022-10-22T20:34:40.604Z,4.40
2022-10-22T20:37:08.451Z,3.60
2022-10-22T20:39:34.882Z,4.53
2022-10-22T20:42:01.467Z,4.47
2022-10-22T20:44:28.218Z,4.47
2022-10-22T20:46:54.673Z,4.70
2022-10-22T20:49:21.123Z,4.20
2022-10-22T20:51:47.685Z,4.07
2022-10-22T20:54:15.821Z,4.88
2022-10-22T20:56:43.217Z,5.22
2022-10-22T20:59:10.608Z,5.40
2022-10-22T21:01:38.949Z,4.93
2022-10-22T21:04:06.126Z,4.93
2022-10-22T21:06:33.020Z,4.90
2022-10-22T21:08:59.703Z,5.35
2022-10-22T21:11:27.504Z,5.45
2022-10-22T21:13:53.997Z,5.10
2022-10-22T21:16:20.385Z,5.47
2022-10-22T21:18:46.932Z,4.63
2022-10-22T21:21:13.378Z,4.72
2022-10-22T21:23:39.932Z,5.30
2022-10-22T21:26:06.681Z,4.40
2022-10-22T21:28:36.192Z,4.80
2022-10-22T21:31:03.036Z,4.40
2022-10-22T21:33:29.611Z,3.92
2022-10-22T21:35:56.947Z,3.67
2022-10-22T21:38:24.790Z,3.92
2022-10-22T21:40:51.342Z,3.63
2022-10-22T21:43:18.064Z,3.25
2022-10-22T21:45:45.782Z,3.88
2022-10-22T21:48:12.945Z,3.38
2022-10-22T21:50:39.987Z,3.58
2022-10-22T21:53:06.466Z,3.53
2022-10-22T21:55:37.853Z,3.03
2022-10-22T21:58:04.256Z,3.33
2022-10-22T22:00:30.681Z,3.15
2022-10-22T22:02:58.519Z,3.30
2022-10-22T22:05:25.038Z,3.22
2022-10-22T22:07:51.959Z,3.33
2022-10-22T22:10:18.525Z,3.55
2022-10-22T22:12:45.060Z,3.13
2022-10-22T22:15:11.592Z,3.22
2022-10-22T22:17:38.046Z,3.53
2022-10-22T22:20:06.894Z,3.63
2022-10-22T22:22:33.312Z,3.97
2022-10-22T22:24:59.713Z,3.58
2022-10-22T22:27:26.217Z,3.00
2022-10-22T22:29:54.057Z,3.65
2022-10-22T22:32:20.616Z,3.60
2022-10-22T22:34:46.984Z,3.33
2022-10-22T22:37:14.806Z,4.13
2022-10-22T22:39:41.500Z,4.28
2022-10-22T22:42:07.887Z,3.55
2022-10-22T22:44:34.279Z,3.85
2022-10-22T22:47:00.659Z,3.45
2022-10-22T22:49:27.048Z,3.70
2022-10-22T22:51:53.464Z,3.83
2022-10-22T22:54:21.252Z,3.30
2022-10-22T22:56:49.865Z,3.53
2022-10-22T22:59:16.265Z,3.92
2022-10-22T23:01:42.738Z,3.67
2022-10-22T23:04:12.071Z,4.05
2022-10-22T23:06:39.153Z,3.88
2022-10-22T23:09:07.349Z,4.43
2022-10-22T23:11:35.542Z,4.20
2022-10-22T23:14:04.310Z,3.78
2022-10-22T23:16:32.666Z,3.78
2022-10-22T23:19:00.429Z,4.18
2022-10-22T23:21:28.642Z,3.88
2022-10-22T23:23:57.554Z,4.30
2022-10-22T23:26:25.860Z,3.65
2022-10-22T23:28:54.390Z,3.83
2022-10-22T23:31:21.541Z,3.53
2022-10-22T23:33:48.468Z,4.10
2022-10-22T23:36:14.873Z,3.97
2022-10-22T23:38:41.734Z,4.30
2022-10-22T23:41:08.787Z,4.10
2022-10-22T23:43:36.227Z,4.43
2022-10-22T23:46:04.939Z,4.20
2022-10-22T23:48:31.400Z,4.47
2022-10-22T23:50:57.855Z,4.45
2022-10-22T23:53:24.316Z,5.32
2022-10-22T23:55:50.695Z,4.28
2022-10-22T23:58:17.077Z,4.15
